createdAt,value
2022-09-10T00:01:26.508Z,14.07
2022-09-10T00:03:54.812Z,14.01
2022-09-10T00:06:25.521Z,14.01
2022-09-10T00:08:53.044Z,14.09
2022-09-10T00:11:20.902Z,14.03
2022-09-10T00:13:48.215Z,14.07
2022-09-10T00:16:19.127Z,14.14
2022-09-10T00:18:47.364Z,14.15
2022-09-10T00:21:17.604Z,14.18
2022-09-10T00:23:47.164Z,14.13
2022-09-10T00:26:22.505Z,14.21
2022-09-10T00:28:50.912Z,14.25
2022-09-10T00:31:20.186Z,14.31
2022-09-10T00:33:46.891Z,14.35
2022-09-10T00:36:28.308Z,14.42
2022-09-10T00:38:58.184Z,14.39
2022-09-10T00:41:26.118Z,14.38
2022-09-10T00:43:58.175Z,14.44
2022-09-10T00:46:33.766Z,14.42
2022-09-10T00:49:03.370Z,14.41
2022-09-10T00:51:32.270Z,14.45
2022-09-10T00:53:59.662Z,14.49
2022-09-10T00:56:26.515Z,14.52
2022-09-10T00:58:53.400Z,14.47
2022-09-10T01:01:20.136Z,14.47
2022-09-10T01:03:47.607Z,14.48
2022-09-10T01:06:14.723Z,14.41
2022-09-10T01:08:41.596Z,14.42
2022-09-10T01:11:37.940Z,14.39
2022-09-10T01:14:17.923Z,14.35
2022-09-10T01:17:03.683Z,14.30
2022-09-10T01:19:49.958Z,14.34
2022-09-10T01:22:23.832Z,14.36
2022-09-10T01:24:54.527Z,14.36
2022-09-10T01:27:39.922Z,14.28
2022-09-10T01:30:30.889Z,14.24
2022-09-10T01:33:07.871Z,14.27
2022-09-10T01:35:45.528Z,14.32
2022-09-10T01:38:17.414Z,14.29
2022-09-10T01:40:44.306Z,14.30
2022-09-10T01:43:15.031Z,14.33
2022-09-10T01:45:51.109Z,14.32
2022-09-10T01:48:28.414Z,14.28
2022-09-10T01:51:09.811Z,14.23
2022-09-10T01:54:03.798Z,14.20
2022-09-10T01:56:35.703Z,14.08
2022-09-10T01:59:38.228Z,14.05
2022-09-10T02:02:11.506Z,14.08
2022-09-10T02:04:38.351Z,14.08
2022-09-10T02:07:06.775Z,14.07
2022-09-10T02:09:33.847Z,14.05
2022-09-10T02:12:02.385Z,14.08
2022-09-10T02:14:55.996Z,13.99
2022-09-10T02:17:47.326Z,13.99
2022-09-10T02:20:14.810Z,14.08
2022-09-10T02:22:48.787Z,14.13
2022-09-10T02:25:16.451Z,14.13
2022-09-10T02:27:44.002Z,14.13
2022-09-10T02:30:11.815Z,14.11
2022-09-10T02:32:39.282Z,14.14
2022-09-10T02:35:06.563Z,14.18
2022-09-10T02:37:33.231Z,14.23
2022-09-10T02:40:00.311Z,14.20
2022-09-10T02:42:27.073Z,14.20
2022-09-10T02:44:54.011Z,14.23
2022-09-10T02:47:21.042Z,14.22
2022-09-10T02:49:47.653Z,14.22
2022-09-10T02:52:14.443Z,14.22
2022-09-10T02:54:41.328Z,14.22
2022-09-10T02:57:10.743Z,14.22
2022-09-10T02:59:37.424Z,14.17
2022-09-10T03:02:04.373Z,14.19
2022-09-10T03:04:31.202Z,14.17
2022-09-10T03:06:57.867Z,14.15
2022-09-10T03:09:28.447Z,14.14
2022-09-10T03:11:55.257Z,14.17
2022-09-10T03:14:24.674Z,14.19
2022-09-10T03:16:51.500Z,14.16
2022-09-10T03:19:18.387Z,14.20
2022-09-10T03:21:47.632Z,14.16
2022-09-10T03:24:15.596Z,14.17
2022-09-10T03:26:44.531Z,14.17
2022-09-10T03:29:12.419Z,14.19
2022-09-10T03:31:40.183Z,14.20
2022-09-10T03:34:06.863Z,14.20
2022-09-10T03:36:33.745Z,14.18
2022-09-10T03:39:00.809Z,14.20
2022-09-10T03:41:30.992Z,14.24
2022-09-10T03:43:58.802Z,14.30
2022-09-10T03:46:26.445Z,14.30
2022-09-10T03:48:55.655Z,14.35
2022-09-10T03:51:24.698Z,14.33
2022-09-10T03:53:51.327Z,14.28
2022-09-10T03:56:21.074Z,14.22
2022-09-10T03:58:49.308Z,14.23
2022-09-10T04:01:17.158Z,14.27
2022-09-10T04:03:47.306Z,14.29
2022-09-10T04:06:16.250Z,14.25
2022-09-10T04:08:46.520Z,14.23
2022-09-10T04:11:15.522Z,14.20
2022-09-10T04:13:43.143Z,14.26
2022-09-10T04:16:12.146Z,14.27
2022-09-10T04:18:39.883Z,14.27
2022-09-10T04:21:06.692Z,14.26
2022-09-10T04:23:34.111Z,14.25
2022-09-10T04:26:14.751Z,14.22
2022-09-10T04:28:43.353Z,14.24
2022-09-10T04:31:10.684Z,14.26
2022-09-10T04:33:37.763Z,14.21
2022-09-10T04:36:06.055Z,14.20
2022-09-10T04:38:34.969Z,14.24
2022-09-10T04:41:01.738Z,14.10
2022-09-10T04:43:29.096Z,14.04
2022-09-10T04:45:56.131Z,14.11
2022-09-10T04:48:23.891Z,14.11
2022-09-10T04:51:14.704Z,14.06
2022-09-10T04:53:40.770Z,14.07
2022-09-10T04:56:08.497Z,13.99
2022-09-10T04:58:39.113Z,14.05
2022-09-10T05:01:07.284Z,14.03
2022-09-10T05:03:34.234Z,14.04
2022-09-10T05:06:02.079Z,14.07
2022-09-10T05:08:29.622Z,14.11
2022-09-10T05:10:59.054Z,14.16
2022-09-10T05:13:25.723Z,14.15
2022-09-10T05:15:52.443Z,14.15
2022-09-10T05:18:19.207Z,14.16
2022-09-10T05:20:45.884Z,14.24
2022-09-10T05:23:12.688Z,14.24
2022-09-10T05:25:40.146Z,14.25
2022-09-10T05:28:06.999Z,14.28
2022-09-10T05:30:33.634Z,14.28
2022-09-10T05:33:01.177Z,14.33
2022-09-10T05:35:38.552Z,14.36
2022-09-10T05:38:08.258Z,14.37
2022-09-10T05:40:37.321Z,14.45
2022-09-10T05:43:04.049Z,14.40
2022-09-10T05:45:30.925Z,14.42
2022-09-10T05:47:57.931Z,14.47
2022-09-10T05:50:24.626Z,14.56
2022-09-10T05:52:52.736Z,14.57
2022-09-10T05:55:19.504Z,14.54
2022-09-10T05:57:47.839Z,14.54
2022-09-10T06:00:17.378Z,14.58
2022-09-10T06:02:58.582Z,14.59
2022-09-10T06:05:39.620Z,14.61
2022-09-10T06:08:08.768Z,14.60
2022-09-10T06:10:38.697Z,14.65
2022-09-10T06:13:07.187Z,14.63
2022-09-10T06:15:35.672Z,14.68
2022-09-10T06:18:02.671Z,14.62
2022-09-10T06:20:29.787Z,14.67
2022-09-10T06:22:56.476Z,14.73
2022-09-10T06:25:23.339Z,14.80
2022-09-10T06:27:50.394Z,14.83
2022-09-10T06:30:17.786Z,14.95
2022-09-10T06:32:47.412Z,14.95
2022-09-10T06:35:14.332Z,14.89
2022-09-10T06:37:41.176Z,14.87
2022-09-10T06:40:09.929Z,14.95
2022-09-10T06:42:37.162Z,14.96
2022-09-10T06:45:17.755Z,14.99
2022-09-10T06:50:39.657Z,15.20
2022-09-10T06:53:06.502Z,15.43
2022-09-10T06:55:35.279Z,15.46
2022-09-10T06:58:03.341Z,15.48
2022-09-10T07:00:32.294Z,15.45
2022-09-10T07:03:01.159Z,15.48
2022-09-10T07:05:29.532Z,15.56
2022-09-10T07:07:57.655Z,15.54
2022-09-10T07:10:24.584Z,15.68
2022-09-10T07:12:52.007Z,15.84
2022-09-10T07:15:20.083Z,15.86
2022-09-10T07:17:46.775Z,16.09
2022-09-10T07:20:14.978Z,16.13
2022-09-10T07:22:46.126Z,16.15
2022-09-10T07:25:14.507Z,16.11
2022-09-10T07:28:13.223Z,16.16
2022-09-10T07:30:46.615Z,16.09
2022-09-10T07:33:14.924Z,16.15
2022-09-10T07:35:43.390Z,16.00
2022-09-10T07:38:14.162Z,16.00
2022-09-10T07:40:43.792Z,15.89
2022-09-10T07:43:10.867Z,15.70
2022-09-10T07:45:37.891Z,15.70
2022-09-10T07:48:05.318Z,15.82
2022-09-10T07:50:36.440Z,15.92
2022-09-10T07:53:03.199Z,16.11
2022-09-10T07:55:31.615Z,16.36
2022-09-10T07:58:00.184Z,16.26
2022-09-10T08:00:29.279Z,16.48
2022-09-10T08:02:59.666Z,16.58
2022-09-10T08:05:29.169Z,16.56
2022-09-10T08:07:55.814Z,16.57
2022-09-10T08:10:25.044Z,16.48
2022-09-10T08:12:52.259Z,16.61
2022-09-10T08:15:18.978Z,16.70
2022-09-10T08:17:46.247Z,16.86
2022-09-10T08:20:13.603Z,16.89
2022-09-10T08:22:43.276Z,16.89
2022-09-10T08:25:10.784Z,17.04
2022-09-10T08:27:37.553Z,17.02
2022-09-10T08:30:08.050Z,17.27
2022-09-10T08:32:36.151Z,17.41
2022-09-10T08:35:05.044Z,17.58
2022-09-10T08:37:33.923Z,18.12
2022-09-10T08:40:01.815Z,18.52
2022-09-10T08:42:46.448Z,18.60
2022-09-10T08:45:28.110Z,18.68
2022-09-10T08:48:06.675Z,18.61
2022-09-10T08:50:50.292Z,18.75
2022-09-10T08:53:26.677Z,18.69
2022-09-10T08:55:58.692Z,18.49
2022-09-10T08:58:42.563Z,17.99
2022-09-10T09:01:15.491Z,18.07
2022-09-10T09:03:45.436Z,18.17
2022-09-10T09:06:25.133Z,18.38
2022-09-10T09:08:52.268Z,18.23
2022-09-10T09:11:41.567Z,18.07
2022-09-10T09:14:36.151Z,17.79
2022-09-10T09:17:16.868Z,18.04
2022-09-10T09:19:57.174Z,18.06
2022-09-10T09:22:51.550Z,18.32
2022-09-10T09:25:46.258Z,18.80
2022-09-10T09:28:43.586Z,19.13
2022-09-10T09:31:38.043Z,19.17
2022-09-10T09:34:19.324Z,19.26
2022-09-10T09:36:53.274Z,18.67
2022-09-10T09:39:26.484Z,18.31
2022-09-10T09:42:08.187Z,17.58
2022-09-10T09:44:48.649Z,17.29
2022-09-10T09:47:15.542Z,17.24
2022-09-10T09:49:44.269Z,17.34
2022-09-10T09:52:21.513Z,17.71
2022-09-10T09:55:15.777Z,17.80
2022-09-10T09:57:43.069Z,17.95
2022-09-10T10:00:37.255Z,17.79
2022-09-10T10:03:16.673Z,17.42
2022-09-10T10:05:43.974Z,17.50
2022-09-10T10:08:30.988Z,17.49
2022-09-10T10:10:58.202Z,17.60
2022-09-10T10:13:25.392Z,18.19
2022-09-10T10:15:56.607Z,18.10
2022-09-10T10:18:23.309Z,17.98
2022-09-10T10:21:11.164Z,17.82
2022-09-10T10:23:38.774Z,17.58
2022-09-10T10:26:30.563Z,17.10
2022-09-10T10:29:04.242Z,17.19
2022-09-10T10:31:42.260Z,17.45
2022-09-10T10:34:28.340Z,17.76
2022-09-10T10:37:13.920Z,18.07
2022-09-10T10:40:02.412Z,18.32
2022-09-10T10:42:50.960Z,18.36
2022-09-10T10:45:49.195Z,17.81
2022-09-10T10:48:47.347Z,17.46
2022-09-10T10:51:33.444Z,16.85
2022-09-10T10:54:37.536Z,17.01
2022-09-10T10:57:22.831Z,17.05
2022-09-10T11:00:13.053Z,17.07
2022-09-10T11:03:16.040Z,16.73
2022-09-10T11:05:51.658Z,16.72
2022-09-10T11:08:23.811Z,17.04
2022-09-10T11:10:58.774Z,17.65
2022-09-10T11:13:45.516Z,18.14
2022-09-10T11:16:16.904Z,18.36
2022-09-10T11:19:03.388Z,18.55
2022-09-10T11:21:52.058Z,18.75
2022-09-10T11:24:55.443Z,19.01
2022-09-10T11:27:30.172Z,19.39
2022-09-10T11:30:04.747Z,19.43
2022-09-10T11:32:42.858Z,19.60
2022-09-10T11:35:34.438Z,19.52
2022-09-10T11:38:18.604Z,18.83
2022-09-10T11:41:31.589Z,18.94
2022-09-10T11:44:18.035Z,19.20
2022-09-10T11:47:26.112Z,19.43
2022-09-10T11:50:02.284Z,19.49
2022-09-10T11:52:31.012Z,19.64
2022-09-10T11:54:58.539Z,19.34
2022-09-10T11:57:34.865Z,19.29
2022-09-10T12:00:16.303Z,19.12
2022-09-10T12:03:41.025Z,18.52
2022-09-10T12:06:19.139Z,18.29
2022-09-10T12:08:51.302Z,17.58
2022-09-10T12:11:35.556Z,17.58
2022-09-10T12:14:07.577Z,18.10
2022-09-10T12:16:42.459Z,18.24
2022-09-10T12:19:29.631Z,18.29
2022-09-10T12:22:01.646Z,18.53
2022-09-10T12:24:33.836Z,18.73
2022-09-10T12:27:01.723Z,19.24
2022-09-10T12:29:40.721Z,19.93
2022-09-10T12:32:19.314Z,20.32
2022-09-10T12:34:48.540Z,20.65
2022-09-10T12:37:27.937Z,20.38
2022-09-10T12:40:26.383Z,20.16
2022-09-10T12:42:59.377Z,19.67
2022-09-10T12:46:12.706Z,19.29
2022-09-10T12:48:45.979Z,18.80
2022-09-10T12:51:18.448Z,19.01
2022-09-10T12:53:47.747Z,19.28
2022-09-10T12:56:18.038Z,19.55
2022-09-10T12:59:07.435Z,19.28
2022-09-10T13:01:41.439Z,19.66
2022-09-10T13:04:30.744Z,20.14
2022-09-10T13:07:25.517Z,20.60
2022-09-10T13:10:21.865Z,20.38
2022-09-10T13:12:51.725Z,20.28
2022-09-10T13:15:20.845Z,20.10
2022-09-10T13:17:47.420Z,20.24
2022-09-10T13:20:20.883Z,19.93
2022-09-10T13:22:56.063Z,20.02
2022-09-10T13:25:43.149Z,19.72
2022-09-10T13:28:34.800Z,19.58
2022-09-10T13:31:11.121Z,19.69
2022-09-10T13:33:49.862Z,19.78
2022-09-10T13:36:38.191Z,20.06
2022-09-10T13:39:15.345Z,20.13
2022-09-10T13:42:13.110Z,20.07
2022-09-10T13:44:46.056Z,19.92
2022-09-10T13:47:19.323Z,19.94
2022-09-10T13:49:55.754Z,20.27
2022-09-10T13:52:29.205Z,20.61
2022-09-10T13:54:56.649Z,20.15
2022-09-10T13:57:40.899Z,20.26
2022-09-10T14:00:19.023Z,20.17
2022-09-10T14:02:52.487Z,19.94
2022-09-10T14:05:24.283Z,19.97
2022-09-10T14:07:51.228Z,20.03
2022-09-10T14:10:18.675Z,20.00
2022-09-10T14:12:45.969Z,19.83
2022-09-10T14:15:17.187Z,19.57
2022-09-10T14:17:48.138Z,19.40
2022-09-10T14:20:23.976Z,19.26
2022-09-10T14:22:58.700Z,18.93
2022-09-10T14:25:52.463Z,18.78
2022-09-10T14:28:27.637Z,18.81
2022-09-10T14:31:22.979Z,18.87
2022-09-10T14:33:49.696Z,18.77
2022-09-10T14:36:28.689Z,19.04
2022-09-10T14:39:01.198Z,19.22
2022-09-10T14:41:29.964Z,19.13
2022-09-10T14:44:32.287Z,18.81
2022-09-10T14:47:11.112Z,18.61
2022-09-10T14:49:39.567Z,18.51
2022-09-10T14:52:07.888Z,18.33
2022-09-10T14:54:37.248Z,18.21
2022-09-10T14:57:09.926Z,18.03
2022-09-10T14:59:41.507Z,17.77
2022-09-10T15:02:17.778Z,18.00
2022-09-10T15:04:45.281Z,18.12
2022-09-10T15:07:13.588Z,18.16
2022-09-10T15:09:41.072Z,18.13
2022-09-10T15:12:09.614Z,17.89
2022-09-10T15:14:36.533Z,17.90
2022-09-10T15:17:03.782Z,17.64
2022-09-10T15:19:30.695Z,17.43
2022-09-10T15:21:58.129Z,17.33
2022-09-10T15:24:26.495Z,17.20
2022-09-10T15:26:53.184Z,17.14
2022-09-10T15:29:20.184Z,17.09
2022-09-10T15:31:47.116Z,17.12
2022-09-10T15:34:14.432Z,17.11
2022-09-10T15:36:41.474Z,16.94
2022-09-10T15:39:13.145Z,16.81
2022-09-10T15:41:44.103Z,16.55
2022-09-10T15:44:11.265Z,16.47
2022-09-10T15:46:42.401Z,16.18
2022-09-10T15:49:09.055Z,16.04
2022-09-10T15:51:35.741Z,15.92
2022-09-10T15:54:05.367Z,15.85
2022-09-10T15:56:32.730Z,15.86
2022-09-10T15:58:59.527Z,15.74
2022-09-10T16:01:28.235Z,15.85
2022-09-10T16:04:02.748Z,15.96
2022-09-10T16:06:32.750Z,15.97
2022-09-10T16:09:02.053Z,15.93
2022-09-10T16:11:34.521Z,15.95
2022-09-10T16:14:04.788Z,16.04
2022-09-10T16:16:32.403Z,16.12
2022-09-10T16:19:00.448Z,16.38
2022-09-10T16:21:30.122Z,16.55
2022-09-10T16:23:58.060Z,16.62
2022-09-10T16:26:27.932Z,16.88
2022-09-10T16:28:57.575Z,17.01
2022-09-10T16:31:25.851Z,17.13
2022-09-10T16:33:54.956Z,17.16
2022-09-10T16:36:23.754Z,16.94
2022-09-10T16:38:55.388Z,17.00
2022-09-10T16:41:23.148Z,16.94
2022-09-10T16:43:50.598Z,16.89
2022-09-10T16:46:17.584Z,16.75
2022-09-10T16:48:44.723Z,16.59
2022-09-10T16:51:16.451Z,16.45
2022-09-10T16:53:44.552Z,16.23
2022-09-10T16:56:13.460Z,16.17
2022-09-10T16:58:41.432Z,16.10
2022-09-10T17:01:09.904Z,16.07
2022-09-10T17:03:40.384Z,16.23
2022-09-10T17:06:13.897Z,16.26
2022-09-10T17:08:40.895Z,16.32
2022-09-10T17:11:08.872Z,16.10
2022-09-10T17:13:38.677Z,15.95
2022-09-10T17:16:29.570Z,15.94
2022-09-10T17:18:58.197Z,15.84
2022-09-10T17:21:26.576Z,15.79
2022-09-10T17:23:53.918Z,15.76
2022-09-10T17:26:20.670Z,15.74
2022-09-10T17:28:57.465Z,15.59
2022-09-10T17:31:25.180Z,15.49
2022-09-10T17:33:52.060Z,15.46
2022-09-10T17:36:19.028Z,15.41
2022-09-10T17:38:46.202Z,15.43
2022-09-10T17:41:14.644Z,15.42
2022-09-10T17:43:42.864Z,15.41
2022-09-10T17:46:14.975Z,15.41
2022-09-10T17:48:45.881Z,15.38
2022-09-10T17:51:17.711Z,15.39
2022-09-10T17:53:44.890Z,15.46
2022-09-10T17:56:13.991Z,15.42
2022-09-10T17:58:41.073Z,15.36
2022-09-10T18:01:14.227Z,15.39
2022-09-10T18:03:41.049Z,15.43
2022-09-10T18:06:09.969Z,15.36
2022-09-10T18:08:37.852Z,15.41
2022-09-10T18:11:13.986Z,15.36
2022-09-10T18:13:40.791Z,15.43
2022-09-10T18:16:09.765Z,15.44
2022-09-10T18:18:37.627Z,15.36
2022-09-10T18:21:23.974Z,15.31
2022-09-10T18:23:53.028Z,15.27
2022-09-10T18:26:21.710Z,15.28
2022-09-10T18:28:53.812Z,15.23
2022-09-10T18:31:20.566Z,15.19
2022-09-10T18:33:47.678Z,15.21
2022-09-10T18:36:19.276Z,15.15
2022-09-10T18:38:47.274Z,15.16
2022-09-10T18:41:27.824Z,15.12
2022-09-10T18:43:57.609Z,15.03
2022-09-10T18:46:26.155Z,15.07
2022-09-10T18:48:53.287Z,15.01
2022-09-10T18:51:23.484Z,15.01
2022-09-10T18:53:58.328Z,15.00
2022-09-10T18:56:27.478Z,15.09
2022-09-10T18:58:56.082Z,15.04
2022-09-10T19:01:23.995Z,14.98
2022-09-10T19:03:51.108Z,14.98
2022-09-10T19:06:24.124Z,14.96
2022-09-10T19:08:53.270Z,14.95
2022-09-10T19:11:22.002Z,14.90
2022-09-10T19:13:55.977Z,14.83
2022-09-10T19:16:25.143Z,14.79
2022-09-10T19:18:53.838Z,14.76
2022-09-10T19:21:21.498Z,14.76
2022-09-10T19:23:49.691Z,14.74
2022-09-10T19:26:17.494Z,14.80
2022-09-10T19:28:45.241Z,14.73
2022-09-10T19:31:15.010Z,14.70
2022-09-10T19:33:42.079Z,14.69
2022-09-10T19:36:17.615Z,14.59
2022-09-10T19:38:44.444Z,14.57
2022-09-10T19:41:19.474Z,14.52
2022-09-10T19:43:47.986Z,14.47
2022-09-10T19:46:15.749Z,14.59
2022-09-10T19:48:43.564Z,14.62
2022-09-10T19:51:20.266Z,14.61
2022-09-10T19:53:47.781Z,14.62
2022-09-10T19:56:20.472Z,14.60
2022-09-10T19:58:52.341Z,14.62
2022-09-10T20:01:21.972Z,14.58
2022-09-10T20:03:50.750Z,14.60
2022-09-10T20:06:18.826Z,14.56
2022-09-10T20:08:47.322Z,14.62
2022-09-10T20:11:22.623Z,14.65
2022-09-10T20:13:53.345Z,14.70
2022-09-10T20:16:20.134Z,14.76
2022-09-10T20:18:47.023Z,14.75
2022-09-10T20:21:20.016Z,14.80
2022-09-10T20:23:50.959Z,14.72
2022-09-10T20:26:29.257Z,14.77
2022-09-10T20:29:01.494Z,14.66
2022-09-10T20:31:30.221Z,14.64
2022-09-10T20:34:02.148Z,14.69
2022-09-10T20:36:29.489Z,14.76
2022-09-10T20:38:56.311Z,14.79
2022-09-10T20:41:24.072Z,14.73
2022-09-10T20:43:54.264Z,14.73
2022-09-10T20:46:22.381Z,14.68
2022-09-10T20:48:50.458Z,14.63
2022-09-10T20:51:18.116Z,14.68
2022-09-10T20:53:45.844Z,14.67
2022-09-10T20:56:14.740Z,14.65
2022-09-10T20:58:41.758Z,14.70
2022-09-10T21:01:19.025Z,14.59
2022-09-10T21:03:50.261Z,14.63
2022-09-10T21:06:21.505Z,14.67
2022-09-10T21:08:49.475Z,14.65
2022-09-10T21:11:18.307Z,14.69
2022-09-10T21:13:50.451Z,14.68
2022-09-10T21:16:28.050Z,14.66
2022-09-10T21:19:00.877Z,14.66
2022-09-10T21:21:32.297Z,14.67
2022-09-10T21:24:01.231Z,14.73
2022-09-10T21:26:29.918Z,14.71
2022-09-10T21:28:58.881Z,14.76
2022-09-10T21:31:27.514Z,14.81
2022-09-10T21:34:02.661Z,14.80
2022-09-10T21:36:30.932Z,14.81
2022-09-10T21:39:00.043Z,14.83
2022-09-10T21:41:28.567Z,14.89
2022-09-10T21:43:55.296Z,14.84
2022-09-10T21:46:22.103Z,14.86
2022-09-10T21:48:48.712Z,14.88
2022-09-10T21:51:17.260Z,14.89
2022-09-10T21:53:44.614Z,14.90
2022-09-10T21:56:17.180Z,14.89
2022-09-10T21:58:44.465Z,14.91
2022-09-10T22:01:11.912Z,14.89
2022-09-10T22:03:39.942Z,14.83
2022-09-10T22:06:14.018Z,14.86
2022-09-10T22:08:42.886Z,14.80
2022-09-10T22:11:24.416Z,14.75
2022-09-10T22:13:53.230Z,14.71
2022-09-10T22:16:21.038Z,14.75
2022-09-10T22:18:47.972Z,14.83
2022-09-10T22:21:15.402Z,14.81
2022-09-10T22:23:42.069Z,14.81
2022-09-10T22:26:12.835Z,14.75
2022-09-10T22:28:39.930Z,14.77
2022-09-10T22:31:10.365Z,14.80
2022-09-10T22:33:38.617Z,14.80
2022-09-10T22:36:16.253Z,14.75
2022-09-10T22:38:43.423Z,14.76
2022-09-10T22:41:10.422Z,14.72
2022-09-10T22:43:40.805Z,14.73
2022-09-10T22:46:08.433Z,14.72
2022-09-10T22:48:37.779Z,14.66
2022-09-10T22:51:11.386Z,14.60
2022-09-10T22:53:40.259Z,14.58
2022-09-10T22:56:06.991Z,14.61
2022-09-10T22:58:37.259Z,14.52
2022-09-10T23:01:08.511Z,14.57
2022-09-10T23:03:35.653Z,14.58
2022-09-10T23:06:12.064Z,14.58
2022-09-10T23:08:39.740Z,14.57
2022-09-10T23:11:18.520Z,14.60
2022-09-10T23:13:46.734Z,14.61
2022-09-10T23:16:16.157Z,14.65
2022-09-10T23:18:46.551Z,14.66
2022-09-10T23:21:14.057Z,14.69
2022-09-10T23:23:48.306Z,14.67
2022-09-10T23:26:15.897Z,14.68
2022-09-10T23:28:43.623Z,14.64
2022-09-10T23:31:13.774Z,14.55
2022-09-10T23:33:41.932Z,14.51
2022-09-10T23:36:09.961Z,14.50
2022-09-10T23:38:36.640Z,14.55
2022-09-10T23:41:03.539Z,14.55
2022-09-10T23:43:30.173Z,14.54
2022-09-10T23:45:56.887Z,14.54
2022-09-10T23:48:24.605Z,14.52
2022-09-10T23:50:52.811Z,14.56
2022-09-10T23:53:19.844Z,14.55
2022-09-10T23:55:47.106Z,14.56
2022-09-10T23:58:14.736Z,14.58
